Kapowsin, Washington
Current Conditions -  °F | °C
As of 8:15 AM on Thursday 29 Jan 2015 (Local Time) from KPLU Reporting Station
Drizzle Drizzle  
Wind Chill: 39°   Ceiling: 200
Heat Index: 39°   Visibility: 0mi
Dew Point: 39°   Wind: 0mph
Humidity: 100%   Direction: NA
Pressure: 30.34"   Gusts: NA
Location:  46.99°N, 122.23°W
Report Text: KPLU 291615Z AUTO 00000KT M1/4SM -DZ OVC002 04/04 A3034 RMK AO2
Loading
Personal Weather Stations






























Interactive Weather Map New forecast layout! Learn more

10-Day Weather Forecast

Advertisements
Track Severe Weather on mobile